sensor_id;sensor_type;location;lat;lon;timestamp;P1;durP1;ratioP1;P2;durP2;ratioP2
19026;SDS011;9646;52.034;5.554;2022-12-07T00:02:25;6.03;;;2.97;;
19026;SDS011;9646;52.034;5.554;2022-12-07T00:04:53;5.72;;;2.67;;
19026;SDS011;9646;52.034;5.554;2022-12-07T00:07:20;5.78;;;2.65;;
19026;SDS011;9646;52.034;5.554;2022-12-07T00:09:48;4.60;;;2.50;;
19026;SDS011;9646;52.034;5.554;2022-12-07T00:12:15;3.70;;;2.38;;
19026;SDS011;9646;52.034;5.554;2022-12-07T00:14:42;6.38;;;2.83;;
19026;SDS011;9646;52.034;5.554;2022-12-07T00:17:09;4.30;;;2.78;;
19026;SDS011;9646;52.034;5.554;2022-12-07T00:19:36;4.05;;;2.30;;
19026;SDS011;9646;52.034;5.554;2022-12-07T00:22:03;4.88;;;2.40;;
19026;SDS011;9646;52.034;5.554;2022-12-07T00:24:30;6.20;;;2.90;;
19026;SDS011;9646;52.034;5.554;2022-12-07T00:26:59;6.93;;;2.88;;
19026;SDS011;9646;52.034;5.554;2022-12-07T00:29:26;5.88;;;2.50;;
19026;SDS011;9646;52.034;5.554;2022-12-07T00:31:53;5.97;;;2.92;;
19026;SDS011;9646;52.034;5.554;2022-12-07T00:34:20;6.30;;;3.08;;
19026;SDS011;9646;52.034;5.554;2022-12-07T00:36:48;6.35;;;2.92;;
19026;SDS011;9646;52.034;5.554;2022-12-07T00:39:15;5.28;;;2.33;;
19026;SDS011;9646;52.034;5.554;2022-12-07T00:41:42;5.75;;;2.50;;
19026;SDS011;9646;52.034;5.554;2022-12-07T00:44:10;7.95;;;2.67;;
19026;SDS011;9646;52.034;5.554;2022-12-07T00:46:37;4.75;;;2.88;;
19026;SDS011;9646;52.034;5.554;2022-12-07T00:49:04;6.65;;;2.85;;
19026;SDS011;9646;52.034;5.554;2022-12-07T00:51:31;3.92;;;2.30;;
19026;SDS011;9646;52.034;5.554;2022-12-07T00:53:58;7.00;;;2.80;;
19026;SDS011;9646;52.034;5.554;2022-12-07T00:56:26;7.32;;;2.70;;
19026;SDS011;9646;52.034;5.554;2022-12-07T00:58:54;5.18;;;2.63;;
19026;SDS011;9646;52.034;5.554;2022-12-07T01:01:23;3.75;;;2.25;;
19026;SDS011;9646;52.034;5.554;2022-12-07T01:03:51;8.38;;;2.60;;
19026;SDS011;9646;52.034;5.554;2022-12-07T01:06:19;3.47;;;2.33;;
19026;SDS011;9646;52.034;5.554;2022-12-07T01:08:46;7.47;;;2.72;;
19026;SDS011;9646;52.034;5.554;2022-12-07T01:11:14;4.93;;;2.38;;
19026;SDS011;9646;52.034;5.554;2022-12-07T01:13:41;5.03;;;2.17;;
19026;SDS011;9646;52.034;5.554;2022-12-07T01:16:12;5.43;;;2.80;;
19026;SDS011;9646;52.034;5.554;2022-12-07T01:18:41;7.78;;;2.72;;
19026;SDS011;9646;52.034;5.554;2022-12-07T01:21:09;5.35;;;2.30;;
19026;SDS011;9646;52.034;5.554;2022-12-07T01:23:38;3.63;;;2.30;;
19026;SDS011;9646;52.034;5.554;2022-12-07T01:26:06;5.50;;;2.08;;
19026;SDS011;9646;52.034;5.554;2022-12-07T01:28:34;5.72;;;2.38;;
19026;SDS011;9646;52.034;5.554;2022-12-07T01:31:02;5.60;;;2.50;;
19026;SDS011;9646;52.034;5.554;2022-12-07T01:33:30;4.15;;;2.35;;
19026;SDS011;9646;52.034;5.554;2022-12-07T01:36:02;5.55;;;2.30;;
19026;SDS011;9646;52.034;5.554;2022-12-07T01:38:30;5.88;;;2.20;;
19026;SDS011;9646;52.034;5.554;2022-12-07T01:40:57;6.22;;;2.38;;
19026;SDS011;9646;52.034;5.554;2022-12-07T01:43:25;7.53;;;2.65;;
19026;SDS011;9646;52.034;5.554;2022-12-07T01:45:53;5.55;;;2.22;;
19026;SDS011;9646;52.034;5.554;2022-12-07T01:48:21;6.25;;;2.20;;
19026;SDS011;9646;52.034;5.554;2022-12-07T01:50:49;6.22;;;2.30;;
19026;SDS011;9646;52.034;5.554;2022-12-07T01:53:18;5.97;;;2.15;;
19026;SDS011;9646;52.034;5.554;2022-12-07T01:55:46;5.43;;;2.15;;
19026;SDS011;9646;52.034;5.554;2022-12-07T01:58:14;4.63;;;1.92;;
19026;SDS011;9646;52.034;5.554;2022-12-07T02:00:41;4.28;;;2.22;;
19026;SDS011;9646;52.034;5.554;2022-12-07T02:03:09;3.63;;;1.95;;
19026;SDS011;9646;52.034;5.554;2022-12-07T02:05:38;2.70;;;1.88;;
19026;SDS011;9646;52.034;5.554;2022-12-07T02:08:07;4.25;;;1.65;;
19026;SDS011;9646;52.034;5.554;2022-12-07T02:10:35;3.25;;;1.70;;
19026;SDS011;9646;52.034;5.554;2022-12-07T02:13:03;3.72;;;1.75;;
19026;SDS011;9646;52.034;5.554;2022-12-07T02:15:34;3.63;;;1.80;;
19026;SDS011;9646;52.034;5.554;2022-12-07T02:18:06;5.18;;;2.03;;
19026;SDS011;9646;52.034;5.554;2022-12-07T02:20:34;4.55;;;2.00;;
19026;SDS011;9646;52.034;5.554;2022-12-07T02:23:13;3.80;;;1.73;;
19026;SDS011;9646;52.034;5.554;2022-12-07T02:25:52;3.90;;;1.92;;
19026;SDS011;9646;52.034;5.554;2022-12-07T02:28:24;3.30;;;1.85;;
19026;SDS011;9646;52.034;5.554;2022-12-07T02:30:57;5.82;;;1.80;;
19026;SDS011;9646;52.034;5.554;2022-12-07T02:33:26;6.95;;;2.22;;
19026;SDS011;9646;52.034;5.554;2022-12-07T02:35:55;5.65;;;2.10;;
19026;SDS011;9646;52.034;5.554;2022-12-07T02:38:26;5.05;;;2.00;;
19026;SDS011;9646;52.034;5.554;2022-12-07T02:40:57;3.63;;;1.92;;
19026;SDS011;9646;52.034;5.554;2022-12-07T02:43:27;5.22;;;2.28;;
19026;SDS011;9646;52.034;5.554;2022-12-07T02:45:57;3.33;;;1.70;;
19026;SDS011;9646;52.034;5.554;2022-12-07T02:48:26;5.80;;;1.80;;
19026;SDS011;9646;52.034;5.554;2022-12-07T02:50:53;4.75;;;2.00;;
19026;SDS011;9646;52.034;5.554;2022-12-07T02:53:31;2.63;;;1.52;;
19026;SDS011;9646;52.034;5.554;2022-12-07T02:55:58;4.47;;;1.65;;
19026;SDS011;9646;52.034;5.554;2022-12-07T02:58:30;5.00;;;1.70;;
19026;SDS011;9646;52.034;5.554;2022-12-07T03:01:03;4.90;;;1.70;;
19026;SDS011;9646;52.034;5.554;2022-12-07T03:03:31;4.72;;;1.95;;
19026;SDS011;9646;52.034;5.554;2022-12-07T03:06:03;4.28;;;2.03;;
19026;SDS011;9646;52.034;5.554;2022-12-07T03:08:37;4.35;;;1.92;;
19026;SDS011;9646;52.034;5.554;2022-12-07T03:11:06;4.30;;;1.58;;
19026;SDS011;9646;52.034;5.554;2022-12-07T03:13:37;5.30;;;1.65;;
19026;SDS011;9646;52.034;5.554;2022-12-07T03:16:09;4.65;;;1.60;;
19026;SDS011;9646;52.034;5.554;2022-12-07T03:18:40;2.22;;;1.17;;
19026;SDS011;9646;52.034;5.554;2022-12-07T03:21:09;7.78;;;1.77;;
19026;SDS011;9646;52.034;5.554;2022-12-07T03:23:37;3.97;;;1.60;;
19026;SDS011;9646;52.034;5.554;2022-12-07T03:26:05;5.93;;;1.60;;
19026;SDS011;9646;52.034;5.554;2022-12-07T03:28:36;4.28;;;1.73;;
19026;SDS011;9646;52.034;5.554;2022-12-07T03:31:05;4.80;;;1.70;;
19026;SDS011;9646;52.034;5.554;2022-12-07T03:33:42;7.90;;;1.83;;
19026;SDS011;9646;52.034;5.554;2022-12-07T03:36:12;4.97;;;1.33;;
19026;SDS011;9646;52.034;5.554;2022-12-07T03:38:42;7.30;;;1.92;;
19026;SDS011;9646;52.034;5.554;2022-12-07T03:41:12;8.95;;;1.80;;
19026;SDS011;9646;52.034;5.554;2022-12-07T03:43:41;2.42;;;1.10;;
19026;SDS011;9646;52.034;5.554;2022-12-07T03:46:11;3.95;;;1.38;;
19026;SDS011;9646;52.034;5.554;2022-12-07T03:48:45;6.25;;;1.42;;
19026;SDS011;9646;52.034;5.554;2022-12-07T03:51:17;2.78;;;1.30;;
19026;SDS011;9646;52.034;5.554;2022-12-07T03:53:46;5.80;;;1.35;;
19026;SDS011;9646;52.034;5.554;2022-12-07T03:56:16;3.25;;;1.20;;
19026;SDS011;9646;52.034;5.554;2022-12-07T03:58:43;5.50;;;1.70;;
19026;SDS011;9646;52.034;5.554;2022-12-07T04:01:10;3.53;;;1.25;;
19026;SDS011;9646;52.034;5.554;2022-12-07T04:03:38;5.72;;;1.63;;
19026;SDS011;9646;52.034;5.554;2022-12-07T04:06:06;4.20;;;1.17;;
19026;SDS011;9646;52.034;5.554;2022-12-07T04:08:33;3.40;;;1.23;;
19026;SDS011;9646;52.034;5.554;2022-12-07T04:11:00;5.78;;;1.38;;
19026;SDS011;9646;52.034;5.554;2022-12-07T04:13:27;2.72;;;1.40;;
19026;SDS011;9646;52.034;5.554;2022-12-07T04:15:54;7.68;;;1.60;;
19026;SDS011;9646;52.034;5.554;2022-12-07T04:18:21;3.78;;;1.30;;
19026;SDS011;9646;52.034;5.554;2022-12-07T04:20:48;4.93;;;1.17;;
19026;SDS011;9646;52.034;5.554;2022-12-07T04:23:17;5.68;;;1.65;;
19026;SDS011;9646;52.034;5.554;2022-12-07T04:25:44;4.55;;;1.58;;
19026;SDS011;9646;52.034;5.554;2022-12-07T04:28:14;2.67;;;1.10;;
19026;SDS011;9646;52.034;5.554;2022-12-07T04:30:41;4.25;;;1.30;;
19026;SDS011;9646;52.034;5.554;2022-12-07T04:33:08;3.90;;;1.20;;
19026;SDS011;9646;52.034;5.554;2022-12-07T04:35:35;3.65;;;1.52;;
19026;SDS011;9646;52.034;5.554;2022-12-07T04:38:02;2.47;;;0.90;;
19026;SDS011;9646;52.034;5.554;2022-12-07T04:40:31;1.95;;;1.10;;
19026;SDS011;9646;52.034;5.554;2022-12-07T04:42:58;3.42;;;1.00;;
19026;SDS011;9646;52.034;5.554;2022-12-07T04:45:25;4.97;;;1.38;;
19026;SDS011;9646;52.034;5.554;2022-12-07T04:47:52;1.65;;;1.00;;
19026;SDS011;9646;52.034;5.554;2022-12-07T04:50:19;3.65;;;1.10;;
19026;SDS011;9646;52.034;5.554;2022-12-07T04:52:46;4.68;;;1.00;;
19026;SDS011;9646;52.034;5.554;2022-12-07T04:55:13;3.03;;;1.20;;
19026;SDS011;9646;52.034;5.554;2022-12-07T04:57:41;2.47;;;1.20;;
19026;SDS011;9646;52.034;5.554;2022-12-07T05:00:09;5.82;;;1.27;;
19026;SDS011;9646;52.034;5.554;2022-12-07T05:02:36;4.55;;;1.35;;
19026;SDS011;9646;52.034;5.554;2022-12-07T05:05:03;2.22;;;0.90;;
19026;SDS011;9646;52.034;5.554;2022-12-07T05:07:30;3.90;;;1.23;;
19026;SDS011;9646;52.034;5.554;2022-12-07T05:09:57;2.33;;;1.27;;
19026;SDS011;9646;52.034;5.554;2022-12-07T05:12:24;4.68;;;1.20;;
19026;SDS011;9646;52.034;5.554;2022-12-07T05:14:53;3.58;;;1.25;;
19026;SDS011;9646;52.034;5.554;2022-12-07T05:17:20;7.38;;;1.73;;
19026;SDS011;9646;52.034;5.554;2022-12-07T05:19:47;3.17;;;0.90;;
19026;SDS011;9646;52.034;5.554;2022-12-07T05:22:14;3.97;;;1.25;;
19026;SDS011;9646;52.034;5.554;2022-12-07T05:24:41;2.38;;;1.10;;
19026;SDS011;9646;52.034;5.554;2022-12-07T05:27:08;4.93;;;1.13;;
19026;SDS011;9646;52.034;5.554;2022-12-07T05:29:35;6.13;;;1.65;;
19026;SDS011;9646;52.034;5.554;2022-12-07T05:32:04;2.72;;;1.00;;
19026;SDS011;9646;52.034;5.554;2022-12-07T05:34:31;3.60;;;1.40;;
19026;SDS011;9646;52.034;5.554;2022-12-07T05:36:58;4.25;;;1.00;;
19026;SDS011;9646;52.034;5.554;2022-12-07T05:39:25;2.10;;;0.88;;
19026;SDS011;9646;52.034;5.554;2022-12-07T05:41:52;2.45;;;1.00;;
19026;SDS011;9646;52.034;5.554;2022-12-07T05:44:43;3.75;;;1.30;;
19026;SDS011;9646;52.034;5.554;2022-12-07T05:47:12;2.45;;;0.95;;
19026;SDS011;9646;52.034;5.554;2022-12-07T05:49:39;2.47;;;1.10;;
19026;SDS011;9646;52.034;5.554;2022-12-07T05:52:06;3.00;;;0.95;;
19026;SDS011;9646;52.034;5.554;2022-12-07T05:54:34;3.63;;;1.20;;
19026;SDS011;9646;52.034;5.554;2022-12-07T05:57:01;2.85;;;0.90;;
19026;SDS011;9646;52.034;5.554;2022-12-07T05:59:28;2.15;;;0.95;;
19026;SDS011;9646;52.034;5.554;2022-12-07T06:01:54;6.28;;;1.35;;
19026;SDS011;9646;52.034;5.554;2022-12-07T06:04:24;5.28;;;1.77;;
19026;SDS011;9646;52.034;5.554;2022-12-07T06:06:51;4.20;;;1.65;;
19026;SDS011;9646;52.034;5.554;2022-12-07T06:09:18;6.22;;;1.30;;
19026;SDS011;9646;52.034;5.554;2022-12-07T06:11:45;2.65;;;1.20;;
19026;SDS011;9646;52.034;5.554;2022-12-07T06:14:31;3.28;;;1.08;;
19026;SDS011;9646;52.034;5.554;2022-12-07T06:16:58;3.17;;;1.40;;
19026;SDS011;9646;52.034;5.554;2022-12-07T06:19:26;5.20;;;2.38;;
19026;SDS011;9646;52.034;5.554;2022-12-07T06:21:53;7.38;;;3.00;;
19026;SDS011;9646;52.034;5.554;2022-12-07T06:24:20;6.47;;;2.63;;
19026;SDS011;9646;52.034;5.554;2022-12-07T06:26:48;6.60;;;3.05;;
19026;SDS011;9646;52.034;5.554;2022-12-07T06:29:16;5.68;;;2.75;;
19026;SDS011;9646;52.034;5.554;2022-12-07T06:31:43;5.05;;;2.30;;
19026;SDS011;9646;52.034;5.554;2022-12-07T06:34:10;2.72;;;2.08;;
19026;SDS011;9646;52.034;5.554;2022-12-07T06:36:39;2.60;;;1.50;;
19026;SDS011;9646;52.034;5.554;2022-12-07T06:39:06;3.92;;;1.40;;
19026;SDS011;9646;52.034;5.554;2022-12-07T06:41:34;4.75;;;1.90;;
19026;SDS011;9646;52.034;5.554;2022-12-07T06:44:02;10.85;;;4.13;;
19026;SDS011;9646;52.034;5.554;2022-12-07T06:46:29;7.07;;;2.00;;
19026;SDS011;9646;52.034;5.554;2022-12-07T06:48:56;4.75;;;2.20;;
19026;SDS011;9646;52.034;5.554;2022-12-07T06:51:23;6.32;;;1.50;;
19026;SDS011;9646;52.034;5.554;2022-12-07T06:53:52;3.65;;;1.58;;
19026;SDS011;9646;52.034;5.554;2022-12-07T06:56:19;3.45;;;1.23;;
19026;SDS011;9646;52.034;5.554;2022-12-07T06:58:47;4.80;;;1.65;;
19026;SDS011;9646;52.034;5.554;2022-12-07T07:01:15;6.22;;;1.50;;
19026;SDS011;9646;52.034;5.554;2022-12-07T07:03:42;3.88;;;1.05;;
19026;SDS011;9646;52.034;5.554;2022-12-07T07:06:10;8.10;;;2.05;;
19026;SDS011;9646;52.034;5.554;2022-12-07T07:08:37;3.45;;;1.50;;
19026;SDS011;9646;52.034;5.554;2022-12-07T07:11:06;6.65;;;1.20;;
19026;SDS011;9646;52.034;5.554;2022-12-07T07:13:34;6.55;;;1.90;;
19026;SDS011;9646;52.034;5.554;2022-12-07T07:16:01;2.92;;;1.10;;
19026;SDS011;9646;52.034;5.554;2022-12-07T07:18:28;6.60;;;1.50;;
19026;SDS011;9646;52.034;5.554;2022-12-07T07:20:55;4.28;;;1.35;;
19026;SDS011;9646;52.034;5.554;2022-12-07T07:23:23;2.78;;;1.35;;
19026;SDS011;9646;52.034;5.554;2022-12-07T07:25:50;3.28;;;1.50;;
19026;SDS011;9646;52.034;5.554;2022-12-07T07:28:18;5.97;;;1.50;;
19026;SDS011;9646;52.034;5.554;2022-12-07T07:30:45;3.22;;;1.35;;
19026;SDS011;9646;52.034;5.554;2022-12-07T07:33:12;5.15;;;1.27;;
19026;SDS011;9646;52.034;5.554;2022-12-07T07:35:40;1.98;;;1.10;;
19026;SDS011;9646;52.034;5.554;2022-12-07T07:38:07;2.58;;;1.40;;
19026;SDS011;9646;52.034;5.554;2022-12-07T07:40:34;2.78;;;1.30;;
19026;SDS011;9646;52.034;5.554;2022-12-07T07:43:02;5.57;;;1.83;;
19026;SDS011;9646;52.034;5.554;2022-12-07T07:45:30;4.88;;;1.92;;
19026;SDS011;9646;52.034;5.554;2022-12-07T07:47:57;5.35;;;1.70;;
19026;SDS011;9646;52.034;5.554;2022-12-07T07:50:24;5.97;;;1.88;;
19026;SDS011;9646;52.034;5.554;2022-12-07T07:52:51;5.03;;;1.70;;
19026;SDS011;9646;52.034;5.554;2022-12-07T07:55:18;3.35;;;1.20;;
19026;SDS011;9646;52.034;5.554;2022-12-07T07:57:46;3.67;;;1.60;;
19026;SDS011;9646;52.034;5.554;2022-12-07T08:00:14;6.22;;;1.30;;
19026;SDS011;9646;52.034;5.554;2022-12-07T08:02:42;9.68;;;1.67;;
19026;SDS011;9646;52.034;5.554;2022-12-07T08:05:11;5.18;;;1.88;;
19026;SDS011;9646;52.034;5.554;2022-12-07T08:07:38;3.90;;;1.20;;
19026;SDS011;9646;52.034;5.554;2022-12-07T08:10:06;3.83;;;1.40;;
19026;SDS011;9646;52.034;5.554;2022-12-07T08:12:35;6.55;;;1.73;;
19026;SDS011;9646;52.034;5.554;2022-12-07T08:15:23;5.13;;;1.73;;
19026;SDS011;9646;52.034;5.554;2022-12-07T08:17:52;5.65;;;2.00;;
19026;SDS011;9646;52.034;5.554;2022-12-07T08:20:19;2.40;;;1.35;;
19026;SDS011;9646;52.034;5.554;2022-12-07T08:22:46;4.55;;;1.50;;
19026;SDS011;9646;52.034;5.554;2022-12-07T08:25:13;5.32;;;1.90;;
19026;SDS011;9646;52.034;5.554;2022-12-07T08:27:40;4.80;;;1.80;;
19026;SDS011;9646;52.034;5.554;2022-12-07T08:30:08;4.40;;;1.73;;
19026;SDS011;9646;52.034;5.554;2022-12-07T08:32:35;6.65;;;2.63;;
19026;SDS011;9646;52.034;5.554;2022-12-07T08:35:03;8.07;;;2.90;;
19026;SDS011;9646;52.034;5.554;2022-12-07T08:37:31;5.68;;;2.25;;
19026;SDS011;9646;52.034;5.554;2022-12-07T08:39:58;5.53;;;1.73;;
19026;SDS011;9646;52.034;5.554;2022-12-07T08:42:25;6.32;;;1.83;;
19026;SDS011;9646;52.034;5.554;2022-12-07T08:44:55;4.68;;;1.83;;
19026;SDS011;9646;52.034;5.554;2022-12-07T08:47:23;5.20;;;2.00;;
19026;SDS011;9646;52.034;5.554;2022-12-07T08:49:50;4.10;;;1.70;;
19026;SDS011;9646;52.034;5.554;2022-12-07T08:52:20;7.97;;;2.42;;
19026;SDS011;9646;52.034;5.554;2022-12-07T08:54:47;6.00;;;1.83;;
19026;SDS011;9646;52.034;5.554;2022-12-07T08:57:14;5.00;;;1.52;;
19026;SDS011;9646;52.034;5.554;2022-12-07T08:59:41;4.05;;;1.35;;
19026;SDS011;9646;52.034;5.554;2022-12-07T09:02:08;10.73;;;1.83;;
19026;SDS011;9646;52.034;5.554;2022-12-07T09:04:35;5.38;;;1.60;;
19026;SDS011;9646;52.034;5.554;2022-12-07T09:07:02;6.38;;;1.73;;
19026;SDS011;9646;52.034;5.554;2022-12-07T09:09:31;7.88;;;2.03;;
19026;SDS011;9646;52.034;5.554;2022-12-07T09:11:58;4.05;;;1.50;;
19026;SDS011;9646;52.034;5.554;2022-12-07T09:14:25;6.82;;;1.63;;
19026;SDS011;9646;52.034;5.554;2022-12-07T09:16:52;4.47;;;1.63;;
19026;SDS011;9646;52.034;5.554;2022-12-07T09:19:19;4.72;;;1.85;;
19026;SDS011;9646;52.034;5.554;2022-12-07T09:21:46;2.72;;;1.35;;
19026;SDS011;9646;52.034;5.554;2022-12-07T09:24:13;5.85;;;1.55;;
19026;SDS011;9646;52.034;5.554;2022-12-07T09:26:42;6.63;;;1.90;;
19026;SDS011;9646;52.034;5.554;2022-12-07T09:29:09;8.38;;;1.83;;
19026;SDS011;9646;52.034;5.554;2022-12-07T09:31:36;2.80;;;1.30;;
19026;SDS011;9646;52.034;5.554;2022-12-07T09:34:04;4.38;;;1.80;;
19026;SDS011;9646;52.034;5.554;2022-12-07T09:36:32;6.13;;;1.42;;
19026;SDS011;9646;52.034;5.554;2022-12-07T09:38:59;5.07;;;1.58;;
19026;SDS011;9646;52.034;5.554;2022-12-07T09:41:27;6.43;;;1.60;;
19026;SDS011;9646;52.034;5.554;2022-12-07T09:44:05;7.55;;;1.88;;
19026;SDS011;9646;52.034;5.554;2022-12-07T09:46:34;3.42;;;1.15;;
19026;SDS011;9646;52.034;5.554;2022-12-07T09:49:02;5.07;;;1.75;;
19026;SDS011;9646;52.034;5.554;2022-12-07T09:51:29;2.53;;;1.15;;
19026;SDS011;9646;52.034;5.554;2022-12-07T09:53:56;3.92;;;1.25;;
19026;SDS011;9646;52.034;5.554;2022-12-07T09:56:25;6.10;;;1.40;;
19026;SDS011;9646;52.034;5.554;2022-12-07T09:58:58;5.70;;;1.65;;
19026;SDS011;9646;52.034;5.554;2022-12-07T10:01:31;5.00;;;1.60;;
19026;SDS011;9646;52.034;5.554;2022-12-07T10:04:00;5.03;;;1.35;;
19026;SDS011;9646;52.034;5.554;2022-12-07T10:06:28;4.95;;;1.50;;
19026;SDS011;9646;52.034;5.554;2022-12-07T10:08:55;6.45;;;1.58;;
19026;SDS011;9646;52.034;5.554;2022-12-07T10:11:23;8.32;;;1.88;;
19026;SDS011;9646;52.034;5.554;2022-12-07T10:13:51;4.35;;;1.30;;
19026;SDS011;9646;52.034;5.554;2022-12-07T10:16:30;5.47;;;1.33;;
19026;SDS011;9646;52.034;5.554;2022-12-07T10:18:59;6.03;;;1.38;;
19026;SDS011;9646;52.034;5.554;2022-12-07T10:21:46;4.00;;;1.25;;
19026;SDS011;9646;52.034;5.554;2022-12-07T10:24:25;3.60;;;1.17;;
19026;SDS011;9646;52.034;5.554;2022-12-07T10:26:52;4.78;;;1.77;;
19026;SDS011;9646;52.034;5.554;2022-12-07T10:29:20;2.72;;;0.95;;
19026;SDS011;9646;52.034;5.554;2022-12-07T10:31:51;4.55;;;1.63;;
19026;SDS011;9646;52.034;5.554;2022-12-07T10:34:21;4.03;;;1.88;;
19026;SDS011;9646;52.034;5.554;2022-12-07T10:36:49;4.53;;;1.50;;
19026;SDS011;9646;52.034;5.554;2022-12-07T10:39:17;4.55;;;1.50;;
19026;SDS011;9646;52.034;5.554;2022-12-07T10:41:54;5.75;;;1.80;;
19026;SDS011;9646;52.034;5.554;2022-12-07T10:44:22;5.32;;;1.80;;
19026;SDS011;9646;52.034;5.554;2022-12-07T10:46:53;6.50;;;2.10;;
19026;SDS011;9646;52.034;5.554;2022-12-07T10:52:07;3.05;;;1.20;;
19026;SDS011;9646;52.034;5.554;2022-12-07T10:54:39;4.40;;;1.17;;
19026;SDS011;9646;52.034;5.554;2022-12-07T10:57:10;8.02;;;2.75;;
19026;SDS011;9646;52.034;5.554;2022-12-07T10:59:43;7.72;;;2.22;;
19026;SDS011;9646;52.034;5.554;2022-12-07T11:02:19;5.93;;;2.15;;
19026;SDS011;9646;52.034;5.554;2022-12-07T11:04:50;7.63;;;2.30;;
19026;SDS011;9646;52.034;5.554;2022-12-07T11:07:22;5.80;;;1.98;;
19026;SDS011;9646;52.034;5.554;2022-12-07T11:10:05;5.50;;;1.55;;
19026;SDS011;9646;52.034;5.554;2022-12-07T11:12:39;6.05;;;2.03;;
19026;SDS011;9646;52.034;5.554;2022-12-07T11:15:12;4.68;;;1.25;;
19026;SDS011;9646;52.034;5.554;2022-12-07T11:17:45;6.32;;;2.10;;
19026;SDS011;9646;52.034;5.554;2022-12-07T11:20:27;4.93;;;1.60;;
19026;SDS011;9646;52.034;5.554;2022-12-07T11:22:58;5.22;;;1.80;;
19026;SDS011;9646;52.034;5.554;2022-12-07T11:25:30;4.10;;;1.20;;
19026;SDS011;9646;52.034;5.554;2022-12-07T11:28:03;4.05;;;1.48;;
19026;SDS011;9646;52.034;5.554;2022-12-07T11:30:34;4.07;;;1.73;;
19026;SDS011;9646;52.034;5.554;2022-12-07T11:33:07;2.80;;;1.30;;
19026;SDS011;9646;52.034;5.554;2022-12-07T11:35:38;4.07;;;1.38;;
19026;SDS011;9646;52.034;5.554;2022-12-07T11:38:09;3.97;;;1.45;;
19026;SDS011;9646;52.034;5.554;2022-12-07T11:40:37;4.60;;;1.42;;
19026;SDS011;9646;52.034;5.554;2022-12-07T11:43:05;4.18;;;1.15;;
19026;SDS011;9646;52.034;5.554;2022-12-07T11:45:34;4.35;;;1.65;;
19026;SDS011;9646;52.034;5.554;2022-12-07T11:48:02;6.68;;;1.92;;
19026;SDS011;9646;52.034;5.554;2022-12-07T11:50:34;4.43;;;1.65;;
19026;SDS011;9646;52.034;5.554;2022-12-07T11:53:03;3.83;;;1.35;;
19026;SDS011;9646;52.034;5.554;2022-12-07T11:55:37;5.60;;;1.25;;
19026;SDS011;9646;52.034;5.554;2022-12-07T11:58:10;4.45;;;1.42;;
19026;SDS011;9646;52.034;5.554;2022-12-07T12:00:41;5.32;;;1.30;;
19026;SDS011;9646;52.034;5.554;2022-12-07T12:03:09;8.50;;;1.75;;
19026;SDS011;9646;52.034;5.554;2022-12-07T12:05:39;6.43;;;2.35;;
19026;SDS011;9646;52.034;5.554;2022-12-07T12:08:11;11.70;;;2.90;;
19026;SDS011;9646;52.034;5.554;2022-12-07T12:10:42;8.88;;;2.63;;
19026;SDS011;9646;52.034;5.554;2022-12-07T12:13:15;9.00;;;3.13;;
19026;SDS011;9646;52.034;5.554;2022-12-07T12:15:52;7.68;;;2.20;;
19026;SDS011;9646;52.034;5.554;2022-12-07T12:18:26;7.43;;;2.25;;
19026;SDS011;9646;52.034;5.554;2022-12-07T12:21:02;10.45;;;2.95;;
19026;SDS011;9646;52.034;5.554;2022-12-07T12:23:35;9.88;;;2.92;;
19026;SDS011;9646;52.034;5.554;2022-12-07T12:26:03;7.28;;;2.20;;
19026;SDS011;9646;52.034;5.554;2022-12-07T12:28:32;8.38;;;3.38;;
19026;SDS011;9646;52.034;5.554;2022-12-07T12:31:12;6.63;;;2.90;;
19026;SDS011;9646;52.034;5.554;2022-12-07T12:33:42;6.82;;;2.72;;
19026;SDS011;9646;52.034;5.554;2022-12-07T12:39:10;5.40;;;2.38;;
19026;SDS011;9646;52.034;5.554;2022-12-07T12:41:54;8.60;;;2.03;;
19026;SDS011;9646;52.034;5.554;2022-12-07T12:50:32;6.75;;;2.17;;
19026;SDS011;9646;52.034;5.554;2022-12-07T12:53:01;5.80;;;1.63;;
19026;SDS011;9646;52.034;5.554;2022-12-07T12:58:27;6.80;;;2.13;;
19026;SDS011;9646;52.034;5.554;2022-12-07T13:03:51;5.88;;;1.80;;
19026;SDS011;9646;52.034;5.554;2022-12-07T13:06:19;7.38;;;2.15;;
19026;SDS011;9646;52.034;5.554;2022-12-07T13:08:46;10.32;;;2.40;;
19026;SDS011;9646;52.034;5.554;2022-12-07T13:11:17;2.95;;;1.30;;
19026;SDS011;9646;52.034;5.554;2022-12-07T13:13:46;5.32;;;1.23;;
19026;SDS011;9646;52.034;5.554;2022-12-07T13:21:46;9.93;;;1.85;;
19026;SDS011;9646;52.034;5.554;2022-12-07T13:24:14;4.38;;;1.25;;
19026;SDS011;9646;52.034;5.554;2022-12-07T13:26:41;5.97;;;1.40;;
19026;SDS011;9646;52.034;5.554;2022-12-07T13:29:12;8.15;;;1.55;;
19026;SDS011;9646;52.034;5.554;2022-12-07T13:31:40;4.85;;;1.05;;
19026;SDS011;9646;52.034;5.554;2022-12-07T13:36:50;3.10;;;0.85;;
19026;SDS011;9646;52.034;5.554;2022-12-07T13:39:19;8.00;;;1.60;;
19026;SDS011;9646;52.034;5.554;2022-12-07T13:41:49;4.43;;;0.77;;
19026;SDS011;9646;52.034;5.554;2022-12-07T13:44:18;2.63;;;0.75;;
19026;SDS011;9646;52.034;5.554;2022-12-07T13:46:48;3.30;;;1.02;;
19026;SDS011;9646;52.034;5.554;2022-12-07T13:49:18;12.90;;;6.10;;
19026;SDS011;9646;52.034;5.554;2022-12-07T13:51:46;5.75;;;3.60;;
19026;SDS011;9646;52.034;5.554;2022-12-07T13:54:13;5.50;;;2.22;;
19026;SDS011;9646;52.034;5.554;2022-12-07T13:56:41;3.85;;;1.05;;
19026;SDS011;9646;52.034;5.554;2022-12-07T13:59:13;3.28;;;1.08;;
19026;SDS011;9646;52.034;5.554;2022-12-07T14:01:42;6.85;;;1.40;;
19026;SDS011;9646;52.034;5.554;2022-12-07T14:04:29;3.88;;;1.60;;
19026;SDS011;9646;52.034;5.554;2022-12-07T14:06:56;5.47;;;1.40;;
19026;SDS011;9646;52.034;5.554;2022-12-07T14:09:24;3.55;;;1.05;;
19026;SDS011;9646;52.034;5.554;2022-12-07T14:11:52;3.75;;;1.55;;
19026;SDS011;9646;52.034;5.554;2022-12-07T14:14:20;2.92;;;1.42;;
19026;SDS011;9646;52.034;5.554;2022-12-07T14:16:59;4.43;;;1.00;;
19026;SDS011;9646;52.034;5.554;2022-12-07T14:19:43;2.58;;;1.10;;
19026;SDS011;9646;52.034;5.554;2022-12-07T14:22:18;5.22;;;1.10;;
19026;SDS011;9646;52.034;5.554;2022-12-07T14:24:45;3.53;;;1.00;;
19026;SDS011;9646;52.034;5.554;2022-12-07T14:27:22;3.63;;;1.60;;
19026;SDS011;9646;52.034;5.554;2022-12-07T14:29:51;5.13;;;1.63;;
19026;SDS011;9646;52.034;5.554;2022-12-07T14:32:23;4.30;;;1.20;;
19026;SDS011;9646;52.034;5.554;2022-12-07T14:34:54;3.53;;;1.17;;
19026;SDS011;9646;52.034;5.554;2022-12-07T14:37:21;4.95;;;1.13;;
19026;SDS011;9646;52.034;5.554;2022-12-07T14:39:49;6.72;;;1.40;;
19026;SDS011;9646;52.034;5.554;2022-12-07T14:42:16;6.22;;;1.30;;
19026;SDS011;9646;52.034;5.554;2022-12-07T14:44:43;7.18;;;1.30;;
19026;SDS011;9646;52.034;5.554;2022-12-07T14:47:10;3.40;;;1.55;;
19026;SDS011;9646;52.034;5.554;2022-12-07T14:49:39;5.30;;;1.52;;
19026;SDS011;9646;52.034;5.554;2022-12-07T14:52:08;2.70;;;0.93;;
19026;SDS011;9646;52.034;5.554;2022-12-07T14:54:36;2.90;;;1.35;;
19026;SDS011;9646;52.034;5.554;2022-12-07T14:57:03;5.38;;;1.45;;
19026;SDS011;9646;52.034;5.554;2022-12-07T14:59:30;3.42;;;1.10;;
19026;SDS011;9646;52.034;5.554;2022-12-07T15:01:57;6.03;;;1.33;;
19026;SDS011;9646;52.034;5.554;2022-12-07T15:04:24;3.78;;;1.20;;
19026;SDS011;9646;52.034;5.554;2022-12-07T15:06:56;3.88;;;1.38;;
19026;SDS011;9646;52.034;5.554;2022-12-07T15:09:24;5.32;;;1.60;;
19026;SDS011;9646;52.034;5.554;2022-12-07T15:11:51;4.65;;;1.63;;
19026;SDS011;9646;52.034;5.554;2022-12-07T15:14:18;5.22;;;1.63;;
19026;SDS011;9646;52.034;5.554;2022-12-07T15:16:45;4.40;;;1.27;;
19026;SDS011;9646;52.034;5.554;2022-12-07T15:19:13;6.57;;;1.65;;
19026;SDS011;9646;52.034;5.554;2022-12-07T15:21:41;3.78;;;1.50;;
19026;SDS011;9646;52.034;5.554;2022-12-07T15:24:10;2.63;;;1.50;;
19026;SDS011;9646;52.034;5.554;2022-12-07T15:26:37;7.07;;;1.70;;
19026;SDS011;9646;52.034;5.554;2022-12-07T15:29:05;4.45;;;1.20;;
19026;SDS011;9646;52.034;5.554;2022-12-07T15:31:32;4.22;;;1.52;;
19026;SDS011;9646;52.034;5.554;2022-12-07T15:33:59;4.13;;;1.60;;
19026;SDS011;9646;52.034;5.554;2022-12-07T15:36:27;4.68;;;1.33;;
19026;SDS011;9646;52.034;5.554;2022-12-07T15:38:55;5.25;;;1.80;;